Flight Track Log - Related Links

Times and Time Zones

All times are in EDT time to prevent confusion due to time zone crossing. See the AAY883 flight status page for this flight to view local times or setup timezone preferences in your user account.

Time Position Orientation Groundspeed Altitude Reporting Facility
EDT Latitude Longitude Course Direction KTS MPH feet Rate Location/Type
Sun 06:40:50 PM 42.8122 -85.5114 173° South 193 222 3,000  Level Chicago Center
Sun 06:41:52 PM 42.7506 -85.4750 157° South 240 276 5,300 2,468 Climbing Chicago Center
Sun 06:42:54 PM 42.6978 -85.4100 138° Southeast 254 292 8,100 2,544 Climbing Chicago Center
Sun 06:43:57 PM 42.6419 -85.3422 138° Southeast 265 305 10,600 1,728 Climbing Chicago Center
Sun 06:44:59 PM 42.5742 -85.2667 141° Southeast 311 358 11,700 1,500 Climbing Chicago Center
Sun 06:46:00 PM 41.8321 -85.2840 173° South  Level Estimated
Sun 06:46:01 PM 42.4711 -85.2514 174° South 367 422 13,700  Level Chicago Center
Sun 06:47:03 PM 42.3400 -85.2422 177° South 392 451 16,600 2,323 Climbing Chicago Center
Sun 06:48:05 PM 42.2267 -85.2389 179° South 404 465 18,500 1,790 Climbing Chicago Center
Sun 06:49:07 PM 42.1100 -85.2328 178° South 417 480 20,300 1,597 Climbing Chicago Center
Sun 06:50:09 PM 41.9894 -85.2294 179° South 429 494 21,800 1,597 Climbing Chicago Center
Sun 06:51:11 PM 41.8506 -85.2250 179° South 440 506 23,600 1,645 Climbing Chicago Center
Sun 06:52:13 PM 41.7258 -85.2183 178° South 443 510 25,200 1,403 Climbing Chicago Center
Sun 06:53:15 PM 41.6000 -85.2111 178° South 443 510 26,500 1,355 Climbing Chicago Center
Sun 06:54:17 PM 41.4753 -85.2011 177° South 441 507 28,000 1,355 Climbing Chicago Center
Sun 06:55:19 PM 41.3553 -85.1869 175° South 432 497 29,300 1,161 Climbing Chicago Center
Sun 06:56:21 PM 41.2375 -85.1725 175° South 427 491 30,400 1,056 Climbing Chicago Center
Sun 06:57:24 PM 41.1206 -85.1589 175° South 424 488 31,500 960 Climbing Chicago Center
Sun 06:58:26 PM 41.0053 -85.1472 176° South 419 482 32,400 726 Climbing Chicago Center
Sun 06:59:28 PM 40.8658 -85.1350 176° South 418 481 33,000 290 Climbing Chicago Center
Sun 07:00:30 PM 40.7503 -85.1231 176° South 417 480 33,000  Level Chicago Center
Sun 07:01:32 PM 40.6289 -85.1097 175° South 417 480 33,000  Level Chicago Center
Sun 07:02:04 PM 40.5828 -85.1028 173° South 417 480 33,000  Level Indianapolis Center
Sun 07:03:06 PM 40.4428 -85.0894 176° South 420 483 33,000  Level Indianapolis Center
Sun 07:04:08 PM 40.3261 -85.0789 176° South 420 483 33,000  Level Indianapolis Center
Sun 07:05:10 PM 40.2097 -85.0672 176° South 420 483 33,000  Level Indianapolis Center
Sun 07:06:42 PM 40.0228 -85.0464 175° South 423 487 33,000  Level Chicago Center
Sun 07:07:13 PM 39.9764 -85.0411 175° South 420 483 33,000  Level Indianapolis Center
Sun 07:08:15 PM 39.8594 -85.0286 175° South 420 483 33,000  Level Indianapolis Center
Sun 07:09:17 PM 39.7433 -85.0164 175° South 420 483 33,000  Level Indianapolis Center
Sun 07:10:19 PM 39.6036 -85.0039 176° South 419 482 33,000  Level Indianapolis Center
Sun 07:11:21 PM 39.4867 -84.9922 176° South 420 483 33,000  Level Indianapolis Center
Sun 07:12:23 PM 39.3719 -84.9792 175° South 417 480 33,000  Level Indianapolis Center
Sun 07:13:24 PM 39.2569 -84.9675 176° South 415 478 33,000  Level Indianapolis Center
Sun 07:14:26 PM 39.1439 -84.9544 175° South 411 473 33,000  Level Indianapolis Center
Sun 07:15:28 PM 39.0322 -84.9444 176° South 405 466 33,000  Level Indianapolis Center
Sun 07:17:00 PM 38.8628 -84.9221 174° South  Level FlightAware Approximate
Sun 07:17:32 PM 38.7883 -84.9211 174° South 398 458 33,000  Level Indianapolis Center
Sun 07:18:34 PM 38.6794 -84.9083 175° South 395 455 33,000  Level Indianapolis Center
Sun 07:19:35 PM 38.5731 -84.8975 175° South 385 443 33,000  Level Indianapolis Center
Sun 07:20:37 PM 38.4633 -84.8867 176° South 389 448 33,000  Level Indianapolis Center
Sun 07:21:39 PM 38.3539 -84.8772 176° South 394 453 33,000  Level Indianapolis Center
Sun 07:22:41 PM 38.2283 -84.8636 175° South 391 450 33,000  Level Indianapolis Center
Sun 07:23:42 PM 38.1164 -84.8508 175° South 398 458 33,000  Level Indianapolis Center
Sun 07:24:44 PM 38.0064 -84.8403 176° South 396 456 33,000  Level Indianapolis Center
Sun 07:25:46 PM 37.8931 -84.8306 176° South 405 466 33,000  Level Indianapolis Center
Sun 07:26:47 PM 37.7797 -84.8206 176° South 406 467 33,000  Level Indianapolis Center
Sun 07:27:49 PM 37.6689 -84.8083 175° South 401 461 33,000  Level Indianapolis Center
Sun 07:28:51 PM 37.5397 -84.7967 176° South 400 460 33,000  Level Indianapolis Center
Sun 07:29:52 PM 37.4289 -84.7833 175° South 400 460 33,000  Level Indianapolis Center
Sun 07:30:54 PM 37.3186 -84.7744 176° South 396 456 33,000  Level Indianapolis Center
Sun 07:31:56 PM 37.2072 -84.7644 176° South 399 459 33,000  Level Indianapolis Center
Sun 07:32:57 PM 37.0967 -84.7542 176° South 398 458 33,000  Level Indianapolis Center
Sun 07:34:00 PM 36.9837 -84.7405 174° South  Level FlightAware Approximate
Sun 07:35:00 PM 36.8594 -84.7308 174° South 399 459 33,000  Level Indianapolis Center
Sun 07:36:02 PM 36.7489 -84.7203 176° South 397 457 33,000  Level Indianapolis Center
Sun 07:37:03 PM 36.6386 -84.7100 176° South 398 458 33,000  Level Indianapolis Center
Sun 07:38:05 PM 36.5297 -84.6986 175° South 393 452 33,000  Level Indianapolis Center
Sun 07:39:06 PM 36.4192 -84.6892 176° South 396 456 33,000  Level Indianapolis Center
Sun 07:40:08 PM 36.3097 -84.6783 175° South 395 455 33,000  Level Indianapolis Center
Sun 07:41:09 PM 36.2000 -84.6669 175° South 395 455 33,000  Level Indianapolis Center
Sun 07:41:57 PM 36.1089 -84.6581 175° South 401 461 33,000  Level Atlanta Center
Sun 07:42:57 PM 35.9983 -84.6497 177° South 401 461 33,000  Level Atlanta Center
Sun 07:43:57 PM 35.8900 -84.6411 176° South 406 467 33,000  Level Atlanta Center
Sun 07:44:57 PM 35.7794 -84.6325 176° South 406 467 33,000  Level Atlanta Center
Sun 07:45:57 PM 35.6606 -84.6214 176° South 406 467 33,000  Level Atlanta Center
Sun 07:46:57 PM 35.5500 -84.6081 174° South 406 467 33,000  Level Atlanta Center
Sun 07:47:57 PM 35.4458 -84.5997 176° South 401 461 33,000  Level Atlanta Center
Sun 07:48:57 PM 35.3353 -84.5886 175° South 401 461 33,000  Level Atlanta Center
Sun 07:49:57 PM 35.2289 -84.5828 177° South 401 461 33,000  Level Atlanta Center
Sun 07:50:57 PM 35.1183 -84.5719 175° South 396 456 33,000  Level Atlanta Center
Sun 07:51:57 PM 35.0119 -84.5611 175° South 396 456 33,000  Level Atlanta Center
Sun 07:52:57 PM 34.9036 -84.5503 175° South 396 456 33,000  Level Atlanta Center
Sun 07:53:57 PM 34.7931 -84.5397 176° South 396 456 33,000  Level Atlanta Center
Sun 07:54:57 PM 34.6825 -84.5314 176° South 402 463 33,000  Level Atlanta Center
Sun 07:55:57 PM 34.5717 -84.5256 178° South 402 463 33,000  Level Atlanta Center
Sun 07:56:57 PM 34.4611 -84.5225 179° South 407 468 33,000  Level Atlanta Center
Sun 07:57:57 PM 34.3486 -84.5169 178° South 402 463 33,000  Level Atlanta Center
Sun 07:58:57 PM 34.2381 -84.5111 178° South 402 463 33,000  Level Atlanta Center
Sun 07:59:57 PM 34.1253 -84.5081 179° South 402 463 33,000  Level Atlanta Center
Sun 08:00:57 PM 34.0125 -84.5050 179° South 402 463 33,000  Level Atlanta Center
Sun 08:01:57 PM 33.8978 -84.5017 179° South 407 468 33,000  Level Atlanta Center
Sun 08:02:57 PM 33.7892 -84.4961 178° South 401 461 33,000  Level Atlanta Center
Sun 08:03:57 PM 33.6767 -84.4906 178° South 408 470 33,000  Level Atlanta Center
Sun 08:04:57 PM 33.5639 -84.4875 179° South 403 464 33,000  Level Atlanta Center
Sun 08:05:57 PM 33.4553 -84.4844 179° South 398 458 33,000  Level Atlanta Center
Sun 08:06:57 PM 33.3467 -84.4814 179° South 398 458 33,000  Level Atlanta Center
Sun 08:07:57 PM 33.2383 -84.4733 176° South 398 458 33,000  Level Atlanta Center
Sun 08:08:57 PM 33.1278 -84.4556 172° South 398 458 33,000  Level Atlanta Center
Sun 08:09:57 PM 33.0214 -84.4328 170° South 398 458 33,000  Level Atlanta Center
Sun 08:10:57 PM 32.9150 -84.4150 172° South 398 458 33,000  Level Atlanta Center
Sun 08:11:57 PM 32.8064 -84.3997 173° South 393 452 33,000  Level Atlanta Center
Sun 08:12:57 PM 32.7083 -84.3844 173° South 393 452 33,000  Level Atlanta Center
Sun 08:13:57 PM 32.5958 -84.3642 171° South 399 459 33,000  Level Atlanta Center
Sun 08:14:57 PM 32.4831 -84.3417 170° South 406 467 33,000  Level Atlanta Center
Sun 08:17:27 PM 32.1903 -84.2894 171° South 413 475 33,000  Level Jacksonville Center
Sun 08:18:27 PM 32.0756 -84.2731 173° South 413 475 33,000  Level Jacksonville Center
Sun 08:19:27 PM 31.9608 -84.2517 171° South 413 475 33,000  Level Jacksonville Center
Sun 08:20:27 PM 31.8483 -84.2328 172° South 413 475 33,000  Level Jacksonville Center
Sun 08:21:27 PM 31.7442 -84.2167 173° South 413 475 33,000  Level Jacksonville Center
Sun 08:22:27 PM 31.6317 -84.1981 172° South 413 475 33,000  Level Jacksonville Center
Sun 08:23:27 PM 31.5192 -84.1794 172° South 413 475 33,000  Level Jacksonville Center
Sun 08:24:27 PM 31.4064 -84.1558 170° South 413 475 33,000  Level Jacksonville Center
Sun 08:25:27 PM 31.2919 -84.1397 173° South 413 475 33,000  Level Jacksonville Center
Sun 08:26:27 PM 31.1792 -84.1189 171° South 413 475 33,000  Level Jacksonville Center
Sun 08:27:27 PM 31.0625 -84.1003 172° South 413 475 33,000  Level Jacksonville Center
Sun 08:28:27 PM 30.9478 -84.0819 172° South 413 475 33,000  Level Jacksonville Center
Sun 08:29:27 PM 30.8311 -84.0611 171° South 418 481 33,000  Level Jacksonville Center
Sun 08:30:27 PM 30.7144 -84.0428 172° South 423 487 33,000  Level Jacksonville Center
Sun 08:31:27 PM 30.5978 -84.0219 171° South 423 487 33,000 -50 Level Jacksonville Center
Sun 08:32:27 PM 30.4831 -84.0039 172° South 423 487 32,900  Descending Jacksonville Center
Sun 08:33:27 PM 30.3664 -83.9831 171° South 423 487 33,000  Climbing Jacksonville Center
Sun 08:34:27 PM 30.2494 -83.9675 173° South 423 487 32,900 -50 Descending Jacksonville Center
Sun 08:35:27 PM 30.1328 -83.9469 171° South 423 487 32,900  Level Jacksonville Center
Sun 08:36:26 PM 30.0158 -83.9289 172° South 423 487 32,900  Level Jacksonville Center
Sun 08:37:27 PM 29.8972 -83.9108 172° South 428 493 32,900 50 Level Jacksonville Center
Sun 08:38:27 PM 29.7783 -83.8761 166° South 428 493 33,000 50 Climbing Jacksonville Center
Sun 08:39:27 PM 29.6683 -83.8033 150° Southeast 434 499 33,000 -50 Level Jacksonville Center
Sun 08:40:27 PM 29.5581 -83.7258 149° Southeast 445 512 32,900 -300 Descending Jacksonville Center
Sun 08:41:27 PM 29.4500 -83.6558 151° Southeast 456 525 32,400 -1,513 Descending Jacksonville Center
Sun 08:42:26 PM 29.3397 -83.5881 152° Southeast 456 525 29,900 -2,650 Descending Jacksonville Center
Sun 08:43:27 PM 29.2253 -83.5161 151° Southeast 456 525 27,100 -2,331 Descending Jacksonville Center
Sun 08:44:27 PM 29.1172 -83.4486 151° Southeast 456 525 25,200 -1,800 Descending Jacksonville Center
Sun 08:45:27 PM 29.0150 -83.3769 148° Southeast 445 512 23,500 -1,700 Descending Jacksonville Center
Sun 08:46:27 PM 28.9111 -83.3125 151° Southeast 433 498 21,800 -1,950 Descending Jacksonville Center
Sun 08:47:27 PM 28.8028 -83.2456 152° Southeast 420 483 19,600 -2,050 Descending Jacksonville Center
Sun 08:48:27 PM 28.7047 -83.1861 152° Southeast 408 470 17,700 -1,704 Descending Jacksonville Center
Sun 08:50:09 PM 28.5500 -83.0833 150° Southeast 379 436 15,000 -1,593 Descending Tampa TRACON
Sun 08:51:09 PM 28.4667 -83.0333 152° Southeast 372 428 13,400 -1,476 Descending Tampa TRACON
Sun 08:52:15 PM 28.3667 -82.9667 150° Southeast 359 413 11,900 -1,300 Descending Tampa TRACON
Sun 08:53:09 PM 28.2833 -82.9333 161° South 339 390 10,800 -1,200 Descending Tampa TRACON
Sun 08:54:10 PM 28.2167 -82.8833 147° Southeast 311 358 9,600 -1,488 Descending Tampa TRACON
Sun 08:55:10 PM 28.1333 -82.8333 152° Southeast 297 342 7,800 -1,350 Descending Tampa TRACON
Sun 08:56:10 PM 28.0667 -82.8000 156° South 266 306 6,900 -1,150 Descending Tampa TRACON
Sun 08:57:10 PM 28.0000 -82.7833 168° South 245 282 5,500 -1,350 Descending Tampa TRACON
Sun 08:58:10 PM 27.9333 -82.7667 168° South 235 270 4,200 -850 Descending Tampa TRACON
Sun 08:59:10 PM 27.8667 -82.7667 180° South 204 235 3,800 -600 Descending Tampa TRACON
Sun 09:00:10 PM 27.8167 -82.7500 164° South 193 222 3,000 -750 Descending Tampa TRACON
Sun 09:01:10 PM 27.8000 -82.7167 119° Southeast 189 217 2,300 -750 Descending Tampa TRACON
Sun 09:02:10 PM 27.8333 -82.6833 41° Northeast 171 197 1,500 -800 Descending Tampa TRACON
Sun 09:03:10 PM 27.8667 -82.6833 360° North 148 170 700 -800 Descending Tampa TRACON

Login

Don't have an account? Register now (free) for customized features, flight alerts, and more!